sensor_id;sensor_type;location;lat;lon;timestamp;pressure;altitude;pressure_sealevel;temperature;humidity
72640;BME280;60683;51.730;8.762;2023-08-24T00:00:25;100637.25;;;17.14;83.50
72640;BME280;60683;51.730;8.762;2023-08-24T00:03:12;100643.72;;;17.08;83.87
72640;BME280;60683;51.730;8.762;2023-08-24T00:05:40;100646.41;;;17.03;84.26
72640;BME280;60683;51.730;8.762;2023-08-24T00:08:08;100645.31;;;16.99;84.65
72640;BME280;60683;51.730;8.762;2023-08-24T00:10:36;100645.81;;;16.96;85.13
72640;BME280;60683;51.730;8.762;2023-08-24T00:13:04;100639.03;;;16.93;84.96
72640;BME280;60683;51.730;8.762;2023-08-24T00:15:31;100635.50;;;16.93;85.03
72640;BME280;60683;51.730;8.762;2023-08-24T00:17:58;100642.00;;;16.92;85.15
72640;BME280;60683;51.730;8.762;2023-08-24T00:20:25;100640.34;;;16.85;85.52
72640;BME280;60683;51.730;8.762;2023-08-24T00:22:52;100646.28;;;16.82;85.65
72640;BME280;60683;51.730;8.762;2023-08-24T00:25:20;100644.13;;;16.84;85.04
72640;BME280;60683;51.730;8.762;2023-08-24T00:27:46;100645.22;;;16.83;84.72
72640;BME280;60683;51.730;8.762;2023-08-24T00:30:15;100643.56;;;16.82;84.50
72640;BME280;60683;51.730;8.762;2023-08-24T00:32:42;100635.69;;;16.81;84.35
72640;BME280;60683;51.730;8.762;2023-08-24T00:35:10;100633.78;;;16.81;84.14
72640;BME280;60683;51.730;8.762;2023-08-24T00:37:37;100629.16;;;16.77;84.34
72640;BME280;60683;51.730;8.762;2023-08-24T00:40:05;100624.00;;;16.80;84.30
72640;BME280;60683;51.730;8.762;2023-08-24T00:42:37;100619.59;;;16.69;84.79
72640;BME280;60683;51.730;8.762;2023-08-24T00:45:06;100611.16;;;16.66;84.90
72640;BME280;60683;51.730;8.762;2023-08-24T00:47:34;100609.78;;;16.63;84.94
72640;BME280;60683;51.730;8.762;2023-08-24T00:50:02;100616.81;;;16.59;84.68
72640;BME280;60683;51.730;8.762;2023-08-24T00:52:31;100626.59;;;16.60;85.24
72640;BME280;60683;51.730;8.762;2023-08-24T00:54:59;100618.69;;;16.59;85.21
72640;BME280;60683;51.730;8.762;2023-08-24T00:57:26;100607.56;;;16.55;85.60
72640;BME280;60683;51.730;8.762;2023-08-24T00:59:54;100617.53;;;16.49;85.81
72640;BME280;60683;51.730;8.762;2023-08-24T01:02:21;100622.41;;;16.47;85.97
72640;BME280;60683;51.730;8.762;2023-08-24T01:04:50;100618.88;;;16.47;85.95
72640;BME280;60683;51.730;8.762;2023-08-24T01:07:17;100618.88;;;16.47;85.74
72640;BME280;60683;51.730;8.762;2023-08-24T01:09:45;100612.91;;;16.45;86.08
72640;BME280;60683;51.730;8.762;2023-08-24T01:12:19;100616.69;;;16.44;86.10
72640;BME280;60683;51.730;8.762;2023-08-24T01:14:51;100613.13;;;16.38;86.19
72640;BME280;60683;51.730;8.762;2023-08-24T01:17:22;100616.13;;;16.42;86.04
72640;BME280;60683;51.730;8.762;2023-08-24T01:19:51;100611.25;;;16.44;85.81
72640;BME280;60683;51.730;8.762;2023-08-24T01:22:31;100615.34;;;16.46;85.91
72640;BME280;60683;51.730;8.762;2023-08-24T01:25:11;100605.00;;;16.43;86.01
72640;BME280;60683;51.730;8.762;2023-08-24T01:27:40;100607.47;;;16.45;85.99
72640;BME280;60683;51.730;8.762;2023-08-24T01:30:09;100609.63;;;16.43;86.08
72640;BME280;60683;51.730;8.762;2023-08-24T01:32:36;100610.97;;;16.40;86.18
72640;BME280;60683;51.730;8.762;2023-08-24T01:35:06;100612.03;;;16.39;86.52
72640;BME280;60683;51.730;8.762;2023-08-24T01:37:34;100592.75;;;16.36;86.69
72640;BME280;60683;51.730;8.762;2023-08-24T01:40:04;100599.81;;;16.37;87.07
72640;BME280;60683;51.730;8.762;2023-08-24T01:42:37;100596.19;;;16.26;87.85
72640;BME280;60683;51.730;8.762;2023-08-24T01:45:08;100593.09;;;16.12;88.20
72640;BME280;60683;51.730;8.762;2023-08-24T01:47:36;100597.69;;;16.07;89.04
72640;BME280;60683;51.730;8.762;2023-08-24T01:50:06;100594.13;;;16.01;89.45
72640;BME280;60683;51.730;8.762;2023-08-24T01:52:33;100583.72;;;15.93;89.96
72640;BME280;60683;51.730;8.762;2023-08-24T01:55:01;100589.38;;;15.86;90.53
72640;BME280;60683;51.730;8.762;2023-08-24T01:57:28;100583.13;;;15.86;90.93
72640;BME280;60683;51.730;8.762;2023-08-24T01:59:55;100586.34;;;15.83;91.17
72640;BME280;60683;51.730;8.762;2023-08-24T02:02:24;100588.66;;;15.69;92.15
72640;BME280;60683;51.730;8.762;2023-08-24T02:04:52;100588.03;;;15.62;92.70
72640;BME280;60683;51.730;8.762;2023-08-24T02:07:18;100583.97;;;15.60;92.92
72640;BME280;60683;51.730;8.762;2023-08-24T02:09:45;100570.59;;;15.53;93.33
72640;BME280;60683;51.730;8.762;2023-08-24T02:12:12;100579.78;;;15.52;93.48
72640;BME280;60683;51.730;8.762;2023-08-24T02:14:39;100575.06;;;15.42;94.07
72640;BME280;60683;51.730;8.762;2023-08-24T02:17:06;100576.16;;;15.41;94.35
72640;BME280;60683;51.730;8.762;2023-08-24T02:19:35;100579.94;;;15.40;94.23
72640;BME280;60683;51.730;8.762;2023-08-24T02:22:02;100576.16;;;15.41;93.95
72640;BME280;60683;51.730;8.762;2023-08-24T02:24:29;100573.13;;;15.38;94.42
72640;BME280;60683;51.730;8.762;2023-08-24T02:26:55;100562.56;;;15.36;94.52
72640;BME280;60683;51.730;8.762;2023-08-24T02:29:23;100560.72;;;15.42;94.14
72640;BME280;60683;51.730;8.762;2023-08-24T02:31:50;100558.06;;;15.47;93.87
72640;BME280;60683;51.730;8.762;2023-08-24T02:34:17;100558.69;;;15.54;93.51
72640;BME280;60683;51.730;8.762;2023-08-24T02:36:45;100563.78;;;15.50;93.55
72640;BME280;60683;51.730;8.762;2023-08-24T02:39:12;100568.03;;;15.41;93.83
72640;BME280;60683;51.730;8.762;2023-08-24T02:41:40;100564.50;;;15.41;93.86
72640;BME280;60683;51.730;8.762;2023-08-24T02:44:07;100564.81;;;15.44;93.58
72640;BME280;60683;51.730;8.762;2023-08-24T02:46:34;100564.91;;;15.54;93.31
72640;BME280;60683;51.730;8.762;2023-08-24T02:49:01;100562.81;;;15.62;92.64
72640;BME280;60683;51.730;8.762;2023-08-24T02:51:28;100561.75;;;15.63;92.40
72640;BME280;60683;51.730;8.762;2023-08-24T02:53:58;100550.91;;;15.63;91.90
72640;BME280;60683;51.730;8.762;2023-08-24T02:56:25;100550.16;;;15.67;91.86
72640;BME280;60683;51.730;8.762;2023-08-24T02:58:52;100539.81;;;15.64;92.08
72640;BME280;60683;51.730;8.762;2023-08-24T03:01:19;100533.88;;;15.67;91.46
72640;BME280;60683;51.730;8.762;2023-08-24T03:03:46;100530.16;;;15.73;91.10
72640;BME280;60683;51.730;8.762;2023-08-24T03:06:13;100539.59;;;15.71;90.66
72640;BME280;60683;51.730;8.762;2023-08-24T03:08:40;100547.75;;;15.71;90.73
72640;BME280;60683;51.730;8.762;2023-08-24T03:11:08;100545.59;;;15.73;90.50
72640;BME280;60683;51.730;8.762;2023-08-24T03:13:37;100543.44;;;15.75;90.11
72640;BME280;60683;51.730;8.762;2023-08-24T03:16:04;100527.38;;;15.68;90.47
72640;BME280;60683;51.730;8.762;2023-08-24T03:18:32;100530.41;;;15.72;90.52
72640;BME280;60683;51.730;8.762;2023-08-24T03:20:59;100538.28;;;15.73;90.61
72640;BME280;60683;51.730;8.762;2023-08-24T03:23:26;100553.09;;;15.66;90.77
72640;BME280;60683;51.730;8.762;2023-08-24T03:25:55;100548.19;;;15.58;91.89
72640;BME280;60683;51.730;8.762;2023-08-24T03:28:24;100547.84;;;15.54;92.14
72640;BME280;60683;51.730;8.762;2023-08-24T03:30:51;100559.75;;;15.53;92.15
72640;BME280;60683;51.730;8.762;2023-08-24T03:33:21;100565.44;;;15.51;92.31
72640;BME280;60683;51.730;8.762;2023-08-24T03:35:48;100562.59;;;15.41;92.79
72640;BME280;60683;51.730;8.762;2023-08-24T03:38:15;100571.00;;;15.40;93.51
72640;BME280;60683;51.730;8.762;2023-08-24T03:40:42;100564.56;;;15.46;92.61
72640;BME280;60683;51.730;8.762;2023-08-24T03:43:10;100555.84;;;15.44;92.47
72640;BME280;60683;51.730;8.762;2023-08-24T03:45:39;100559.38;;;15.44;92.57
72640;BME280;60683;51.730;8.762;2023-08-24T03:48:06;100573.91;;;15.33;92.94
72640;BME280;60683;51.730;8.762;2023-08-24T03:50:33;100561.09;;;15.29;93.77
72640;BME280;60683;51.730;8.762;2023-08-24T03:53:00;100561.63;;;15.26;93.60
72640;BME280;60683;51.730;8.762;2023-08-24T03:55:26;100560.16;;;15.18;94.04
72640;BME280;60683;51.730;8.762;2023-08-24T03:57:54;100572.13;;;15.22;94.22
72640;BME280;60683;51.730;8.762;2023-08-24T04:00:21;100572.88;;;15.17;94.39
72640;BME280;60683;51.730;8.762;2023-08-24T04:02:49;100576.81;;;15.05;94.70
72640;BME280;60683;51.730;8.762;2023-08-24T04:05:16;100580.78;;;14.97;96.15
72640;BME280;60683;51.730;8.762;2023-08-24T04:07:43;100583.25;;;14.99;96.37
72640;BME280;60683;51.730;8.762;2023-08-24T04:10:11;100580.03;;;15.02;96.74
72640;BME280;60683;51.730;8.762;2023-08-24T04:12:38;100587.13;;;15.08;96.25
72640;BME280;60683;51.730;8.762;2023-08-24T04:15:05;100574.72;;;15.12;95.60
72640;BME280;60683;51.730;8.762;2023-08-24T04:17:32;100566.09;;;15.15;95.14
72640;BME280;60683;51.730;8.762;2023-08-24T04:20:01;100556.44;;;15.24;95.01
72640;BME280;60683;51.730;8.762;2023-08-24T04:22:28;100557.44;;;15.40;94.40
72640;BME280;60683;51.730;8.762;2023-08-24T04:24:54;100548.03;;;15.47;93.58
72640;BME280;60683;51.730;8.762;2023-08-24T04:27:21;100543.25;;;15.54;93.72
72640;BME280;60683;51.730;8.762;2023-08-24T04:29:48;100543.84;;;15.57;93.78
72640;BME280;60683;51.730;8.762;2023-08-24T04:32:15;100561.25;;;15.66;93.43
72640;BME280;60683;51.730;8.762;2023-08-24T04:34:42;100566.19;;;15.74;92.92
72640;BME280;60683;51.730;8.762;2023-08-24T04:37:11;100572.56;;;15.58;93.25
72640;BME280;60683;51.730;8.762;2023-08-24T04:39:37;100572.03;;;15.61;93.46
72640;BME280;60683;51.730;8.762;2023-08-24T04:42:05;100575.09;;;15.69;93.36
72640;BME280;60683;51.730;8.762;2023-08-24T04:44:32;100569.22;;;15.77;92.85
72640;BME280;60683;51.730;8.762;2023-08-24T04:46:59;100565.84;;;15.92;91.79
72640;BME280;60683;51.730;8.762;2023-08-24T04:49:26;100568.13;;;16.05;91.10
72640;BME280;60683;51.730;8.762;2023-08-24T04:51:54;100574.19;;;16.22;90.30
72640;BME280;60683;51.730;8.762;2023-08-24T04:54:22;100576.53;;;16.46;88.81
72640;BME280;60683;51.730;8.762;2023-08-24T04:56:49;100583.13;;;16.55;88.76
72640;BME280;60683;51.730;8.762;2023-08-24T04:59:16;100585.34;;;16.63;88.08
72640;BME280;60683;51.730;8.762;2023-08-24T05:01:43;100586.84;;;16.86;87.13
72640;BME280;60683;51.730;8.762;2023-08-24T05:04:10;100589.34;;;16.98;87.87
72640;BME280;60683;51.730;8.762;2023-08-24T05:06:37;100590.75;;;17.05;86.79
72640;BME280;60683;51.730;8.762;2023-08-24T05:09:04;100598.13;;;17.15;87.26
72640;BME280;60683;51.730;8.762;2023-08-24T05:11:32;100602.25;;;17.38;86.82
72640;BME280;60683;51.730;8.762;2023-08-24T05:13:59;100605.22;;;17.31;85.34
72640;BME280;60683;51.730;8.762;2023-08-24T05:16:26;100601.91;;;17.19;85.25
72640;BME280;60683;51.730;8.762;2023-08-24T05:18:53;100595.41;;;17.20;84.98
72640;BME280;60683;51.730;8.762;2023-08-24T05:21:20;100595.13;;;17.21;85.35
72640;BME280;60683;51.730;8.762;2023-08-24T05:23:47;100588.34;;;17.19;86.02
72640;BME280;60683;51.730;8.762;2023-08-24T05:26:14;100584.25;;;17.21;85.13
72640;BME280;60683;51.730;8.762;2023-08-24T05:28:49;100579.91;;;17.20;84.36
72640;BME280;60683;51.730;8.762;2023-08-24T05:31:16;100571.78;;;17.15;84.06
72640;BME280;60683;51.730;8.762;2023-08-24T05:33:43;100574.22;;;17.22;84.40
72640;BME280;60683;51.730;8.762;2023-08-24T05:36:10;100574.22;;;17.22;84.40
72640;BME280;60683;51.730;8.762;2023-08-24T05:38:37;100573.13;;;17.23;84.45
72640;BME280;60683;51.730;8.762;2023-08-24T05:41:10;100573.94;;;17.24;84.98
72640;BME280;60683;51.730;8.762;2023-08-24T05:43:37;100575.84;;;17.23;86.04
72640;BME280;60683;51.730;8.762;2023-08-24T05:46:06;100575.03;;;17.23;87.34
72640;BME280;60683;51.730;8.762;2023-08-24T05:48:32;100576.13;;;17.21;87.69
72640;BME280;60683;51.730;8.762;2023-08-24T05:51:00;100586.19;;;17.26;87.98
72640;BME280;60683;51.730;8.762;2023-08-24T05:53:26;100583.75;;;17.30;87.25
72640;BME280;60683;51.730;8.762;2023-08-24T05:55:57;100576.16;;;17.37;87.53
72640;BME280;60683;51.730;8.762;2023-08-24T05:58:24;100583.53;;;17.41;87.58
72640;BME280;60683;51.730;8.762;2023-08-24T06:00:56;100582.19;;;17.44;87.40
72640;BME280;60683;51.730;8.762;2023-08-24T06:03:25;100584.34;;;17.42;88.67
72640;BME280;60683;51.730;8.762;2023-08-24T06:05:52;100573.75;;;17.45;86.87
72640;BME280;60683;51.730;8.762;2023-08-24T06:08:19;100573.75;;;17.40;87.27
72640;BME280;60683;51.730;8.762;2023-08-24T06:10:46;100577.28;;;17.46;86.98
72640;BME280;60683;51.730;8.762;2023-08-24T06:13:13;100572.66;;;17.41;88.22
72640;BME280;60683;51.730;8.762;2023-08-24T06:15:41;100577.81;;;17.38;89.11
72640;BME280;60683;51.730;8.762;2023-08-24T06:18:08;100560.69;;;17.42;89.11
72640;BME280;60683;51.730;8.762;2023-08-24T06:20:37;100553.91;;;17.40;88.47
72640;BME280;60683;51.730;8.762;2023-08-24T06:23:04;100539.50;;;17.44;88.59
72640;BME280;60683;51.730;8.762;2023-08-24T06:25:31;100535.69;;;17.45;87.89
72640;BME280;60683;51.730;8.762;2023-08-24T06:27:58;100513.97;;;17.50;87.91
72640;BME280;60683;51.730;8.762;2023-08-24T06:30:26;100505.28;;;17.53;88.11
72640;BME280;60683;51.730;8.762;2023-08-24T06:32:53;100492.78;;;17.58;87.65
72640;BME280;60683;51.730;8.762;2023-08-24T06:35:20;100484.38;;;17.69;87.07
72640;BME280;60683;51.730;8.762;2023-08-24T06:37:48;100480.81;;;17.74;87.05
72640;BME280;60683;51.730;8.762;2023-08-24T06:40:15;100476.47;;;17.83;87.40
72640;BME280;60683;51.730;8.762;2023-08-24T06:42:42;100475.94;;;17.96;86.10
72640;BME280;60683;51.730;8.762;2023-08-24T06:45:10;100464.50;;;17.99;85.08
72640;BME280;60683;51.730;8.762;2023-08-24T06:47:36;100461.78;;;18.09;85.06
72640;BME280;60683;51.730;8.762;2023-08-24T06:50:03;100455.19;;;18.20;85.58
72640;BME280;60683;51.730;8.762;2023-08-24T06:52:30;100443.19;;;18.27;84.49
72640;BME280;60683;51.730;8.762;2023-08-24T06:54:59;100436.38;;;18.34;84.86
72640;BME280;60683;51.730;8.762;2023-08-24T06:57:26;100439.59;;;18.46;84.97
72640;BME280;60683;51.730;8.762;2023-08-24T06:59:53;100437.66;;;18.57;85.86
72640;BME280;60683;51.730;8.762;2023-08-24T07:02:20;100441.66;;;18.75;83.53
72640;BME280;60683;51.730;8.762;2023-08-24T07:04:47;100432.34;;;18.91;81.14
72640;BME280;60683;51.730;8.762;2023-08-24T07:07:14;100431.16;;;19.07;80.49
72640;BME280;60683;51.730;8.762;2023-08-24T07:09:41;100426.97;;;19.20;79.48
72640;BME280;60683;51.730;8.762;2023-08-24T07:12:09;100425.22;;;19.34;78.66
72640;BME280;60683;51.730;8.762;2023-08-24T07:14:37;100426.72;;;19.56;77.11
72640;BME280;60683;51.730;8.762;2023-08-24T07:17:04;100423.38;;;19.64;76.67
72640;BME280;60683;51.730;8.762;2023-08-24T07:19:31;100425.38;;;19.48;80.54
72640;BME280;60683;51.730;8.762;2023-08-24T07:21:58;100421.03;;;19.47;81.88
72640;BME280;60683;51.730;8.762;2023-08-24T07:24:25;100415.38;;;19.38;82.01
72640;BME280;60683;51.730;8.762;2023-08-24T07:26:54;100415.50;;;19.62;81.85
72640;BME280;60683;51.730;8.762;2023-08-24T07:29:22;100410.81;;;19.68;79.42
72640;BME280;60683;51.730;8.762;2023-08-24T07:31:49;100404.94;;;19.79;80.38
72640;BME280;60683;51.730;8.762;2023-08-24T07:34:16;100405.31;;;19.97;80.29
72640;BME280;60683;51.730;8.762;2023-08-24T07:36:43;100404.06;;;20.13;79.71
72640;BME280;60683;51.730;8.762;2023-08-24T07:39:12;100407.19;;;20.01;79.85
72640;BME280;60683;51.730;8.762;2023-08-24T07:41:39;100403.19;;;20.17;79.72
72640;BME280;60683;51.730;8.762;2023-08-24T07:44:07;100403.56;;;20.30;78.65
72640;BME280;60683;51.730;8.762;2023-08-24T07:46:35;100403.28;;;20.31;77.38
72640;BME280;60683;51.730;8.762;2023-08-24T07:49:02;100400.31;;;20.28;77.13
72640;BME280;60683;51.730;8.762;2023-08-24T07:51:29;100386.34;;;20.10;76.73
72640;BME280;60683;51.730;8.762;2023-08-24T07:53:56;100409.84;;;20.06;77.99
72640;BME280;60683;51.730;8.762;2023-08-24T07:56:23;100408.72;;;20.12;79.07
72640;BME280;60683;51.730;8.762;2023-08-24T07:58:50;100411.31;;;20.23;78.41
72640;BME280;60683;51.730;8.762;2023-08-24T08:01:17;100412.78;;;20.39;78.03
72640;BME280;60683;51.730;8.762;2023-08-24T08:03:45;100409.22;;;20.62;77.50
72640;BME280;60683;51.730;8.762;2023-08-24T08:06:12;100405.19;;;20.78;75.81
72640;BME280;60683;51.730;8.762;2023-08-24T08:08:39;100399.09;;;21.00;73.74
72640;BME280;60683;51.730;8.762;2023-08-24T08:11:06;100402.22;;;21.12;74.48
72640;BME280;60683;51.730;8.762;2023-08-24T08:13:33;100419.81;;;21.25;74.28
72640;BME280;60683;51.730;8.762;2023-08-24T08:16:00;100420.06;;;21.42;71.37
72640;BME280;60683;51.730;8.762;2023-08-24T08:18:29;100420.75;;;21.67;68.14
72640;BME280;60683;51.730;8.762;2023-08-24T08:20:57;100415.19;;;21.72;69.94
72640;BME280;60683;51.730;8.762;2023-08-24T08:23:25;100421.91;;;21.93;68.64
72640;BME280;60683;51.730;8.762;2023-08-24T08:25:51;100411.97;;;21.97;67.00
72640;BME280;60683;51.730;8.762;2023-08-24T08:28:19;100422.16;;;22.10;65.68
72640;BME280;60683;51.730;8.762;2023-08-24T08:30:47;100418.22;;;22.30;64.67
72640;BME280;60683;51.730;8.762;2023-08-24T08:33:15;100411.09;;;22.43;64.98
72640;BME280;60683;51.730;8.762;2023-08-24T08:35:43;100405.81;;;22.60;64.38
72640;BME280;60683;51.730;8.762;2023-08-24T08:38:11;100404.44;;;22.99;61.57
72640;BME280;60683;51.730;8.762;2023-08-24T08:40:38;100402.47;;;23.13;62.34
72640;BME280;60683;51.730;8.762;2023-08-24T08:43:07;100411.94;;;23.29;61.60
72640;BME280;60683;51.730;8.762;2023-08-24T08:45:33;100401.88;;;23.47;61.05
72640;BME280;60683;51.730;8.762;2023-08-24T08:48:02;100388.81;;;23.66;60.92
72640;BME280;60683;51.730;8.762;2023-08-24T08:50:30;100394.56;;;23.87;61.02
72640;BME280;60683;51.730;8.762;2023-08-24T08:52:58;100393.59;;;23.92;59.91
72640;BME280;60683;51.730;8.762;2023-08-24T08:55:27;100393.22;;;24.16;59.47
72640;BME280;60683;51.730;8.762;2023-08-24T08:57:56;100381.47;;;24.24;58.31
72640;BME280;60683;51.730;8.762;2023-08-24T09:00:24;100377.16;;;24.31;57.92
72640;BME280;60683;51.730;8.762;2023-08-24T09:02:53;100375.72;;;24.34;58.91
72640;BME280;60683;51.730;8.762;2023-08-24T09:05:20;100370.69;;;24.45;57.66
72640;BME280;60683;51.730;8.762;2023-08-24T09:07:48;100369.25;;;24.47;58.18
72640;BME280;60683;51.730;8.762;2023-08-24T09:10:15;100365.75;;;24.72;57.77
72640;BME280;60683;51.730;8.762;2023-08-24T09:12:44;100363.78;;;24.73;58.32
72640;BME280;60683;51.730;8.762;2023-08-24T09:15:11;100352.00;;;24.81;56.16
72640;BME280;60683;51.730;8.762;2023-08-24T09:17:42;100354.25;;;24.79;55.47
72640;BME280;60683;51.730;8.762;2023-08-24T09:20:10;100344.72;;;24.77;57.05
72640;BME280;60683;51.730;8.762;2023-08-24T09:22:37;100346.50;;;24.90;56.83
72640;BME280;60683;51.730;8.762;2023-08-24T09:25:08;100344.25;;;25.00;57.01
72640;BME280;60683;51.730;8.762;2023-08-24T09:27:36;100341.34;;;25.05;56.68
72640;BME280;60683;51.730;8.762;2023-08-24T09:30:05;100329.66;;;25.26;56.92
72640;BME280;60683;51.730;8.762;2023-08-24T09:32:33;100321.16;;;25.48;56.24
72640;BME280;60683;51.730;8.762;2023-08-24T09:35:02;100315.66;;;25.48;55.65
72640;BME280;60683;51.730;8.762;2023-08-24T09:37:31;100309.91;;;25.32;55.26
72640;BME280;60683;51.730;8.762;2023-08-24T09:40:01;100303.06;;;25.47;56.31
72640;BME280;60683;51.730;8.762;2023-08-24T09:42:37;100299.16;;;25.48;55.58
72640;BME280;60683;51.730;8.762;2023-08-24T09:45:06;100296.53;;;25.60;55.26
72640;BME280;60683;51.730;8.762;2023-08-24T09:47:35;100294.91;;;25.59;55.37
72640;BME280;60683;51.730;8.762;2023-08-24T09:50:03;100290.81;;;25.74;55.56
72640;BME280;60683;51.730;8.762;2023-08-24T09:52:32;100273.22;;;25.66;54.25
72640;BME280;60683;51.730;8.762;2023-08-24T09:55:03;100277.06;;;25.74;54.11
72640;BME280;60683;51.730;8.762;2023-08-24T09:57:36;100277.22;;;25.78;53.10
72640;BME280;60683;51.730;8.762;2023-08-24T10:00:07;100272.63;;;25.90;53.81
72640;BME280;60683;51.730;8.762;2023-08-24T10:02:44;100263.41;;;26.07;53.99
72640;BME280;60683;51.730;8.762;2023-08-24T10:05:14;100259.13;;;26.18;51.16
72640;BME280;60683;51.730;8.762;2023-08-24T10:07:49;100257.03;;;26.45;50.48
72640;BME280;60683;51.730;8.762;2023-08-24T10:10:18;100258.09;;;26.52;49.43
72640;BME280;60683;51.730;8.762;2023-08-24T10:12:52;100255.09;;;26.45;52.23
72640;BME280;60683;51.730;8.762;2023-08-24T10:15:25;100247.31;;;26.59;50.14
72640;BME280;60683;51.730;8.762;2023-08-24T10:17:53;100250.78;;;26.89;49.48
72640;BME280;60683;51.730;8.762;2023-08-24T10:20:21;100245.00;;;27.15;49.17
72640;BME280;60683;51.730;8.762;2023-08-24T10:22:50;100237.41;;;27.00;47.47
72640;BME280;60683;51.730;8.762;2023-08-24T10:25:17;100235.78;;;27.11;48.67
72640;BME280;60683;51.730;8.762;2023-08-24T10:27:45;100231.66;;;27.17;47.66
72640;BME280;60683;51.730;8.762;2023-08-24T10:30:14;100231.22;;;27.03;48.67
72640;BME280;60683;51.730;8.762;2023-08-24T10:32:44;100235.72;;;27.32;48.62
72640;BME280;60683;51.730;8.762;2023-08-24T10:35:13;100243.22;;;27.56;47.33
72640;BME280;60683;51.730;8.762;2023-08-24T10:37:44;100241.72;;;27.46;46.84
72640;BME280;60683;51.730;8.762;2023-08-24T10:40:13;100238.63;;;27.60;46.34
72640;BME280;60683;51.730;8.762;2023-08-24T10:42:44;100233.91;;;27.48;45.95
72640;BME280;60683;51.730;8.762;2023-08-24T10:45:13;100239.00;;;27.71;44.63
72640;BME280;60683;51.730;8.762;2023-08-24T10:47:45;100224.25;;;27.79;43.75
72640;BME280;60683;51.730;8.762;2023-08-24T10:50:13;100235.66;;;27.89;44.44
72640;BME280;60683;51.730;8.762;2023-08-24T10:52:43;100231.72;;;28.02;43.25
72640;BME280;60683;51.730;8.762;2023-08-24T10:55:25;100236.63;;;28.09;43.90
72640;BME280;60683;51.730;8.762;2023-08-24T10:57:56;100239.28;;;28.30;43.86
72640;BME280;60683;51.730;8.762;2023-08-24T11:00:26;100240.19;;;28.34;44.88
72640;BME280;60683;51.730;8.762;2023-08-24T11:02:56;100230.47;;;28.00;44.09
72640;BME280;60683;51.730;8.762;2023-08-24T11:05:24;100229.91;;;27.70;44.51
72640;BME280;60683;51.730;8.762;2023-08-24T11:07:55;100224.50;;;27.86;45.43
72640;BME280;60683;51.730;8.762;2023-08-24T11:10:23;100229.41;;;28.05;45.48
72640;BME280;60683;51.730;8.762;2023-08-24T11:13:15;100231.00;;;27.57;45.17
72640;BME280;60683;51.730;8.762;2023-08-24T11:15:43;100229.78;;;27.66;44.36
72640;BME280;60683;51.730;8.762;2023-08-24T11:18:13;100218.28;;;27.64;44.48
72640;BME280;60683;51.730;8.762;2023-08-24T11:20:42;100208.47;;;27.43;44.68
72640;BME280;60683;51.730;8.762;2023-08-24T11:23:10;100206.41;;;27.52;44.65
72640;BME280;60683;51.730;8.762;2023-08-24T11:25:37;100195.50;;;27.67;45.34
72640;BME280;60683;51.730;8.762;2023-08-24T11:28:04;100200.66;;;27.81;45.35
72640;BME280;60683;51.730;8.762;2023-08-24T11:30:32;100189.16;;;27.79;44.63
72640;BME280;60683;51.730;8.762;2023-08-24T11:32:59;100178.66;;;27.97;44.74
72640;BME280;60683;51.730;8.762;2023-08-24T11:35:28;100176.59;;;27.94;43.77
72640;BME280;60683;51.730;8.762;2023-08-24T11:37:56;100178.31;;;27.98;43.67
72640;BME280;60683;51.730;8.762;2023-08-24T11:40:23;100176.03;;;27.76;44.40
72640;BME280;60683;51.730;8.762;2023-08-24T11:42:55;100174.31;;;27.72;44.45
72640;BME280;60683;51.730;8.762;2023-08-24T11:45:22;100152.69;;;27.74;44.69
72640;BME280;60683;51.730;8.762;2023-08-24T11:47:50;100137.72;;;28.15;44.24
72640;BME280;60683;51.730;8.762;2023-08-24T11:50:19;100131.00;;;28.28;43.80
72640;BME280;60683;51.730;8.762;2023-08-24T11:52:47;100124.56;;;28.52;43.22
72640;BME280;60683;51.730;8.762;2023-08-24T11:55:14;100128.25;;;28.56;42.84
72640;BME280;60683;51.730;8.762;2023-08-24T11:57:41;100133.75;;;28.99;42.95
72640;BME280;60683;51.730;8.762;2023-08-24T12:00:09;100123.00;;;29.45;41.77
72640;BME280;60683;51.730;8.762;2023-08-24T12:02:40;100118.59;;;29.79;40.90
72640;BME280;60683;51.730;8.762;2023-08-24T12:05:07;100127.66;;;29.76;39.37
72640;BME280;60683;51.730;8.762;2023-08-24T12:07:34;100120.41;;;29.21;40.96
72640;BME280;60683;51.730;8.762;2023-08-24T12:10:03;100116.81;;;29.52;40.31
72640;BME280;60683;51.730;8.762;2023-08-24T12:12:31;100113.81;;;29.95;40.00
72640;BME280;60683;51.730;8.762;2023-08-24T12:14:57;100110.50;;;30.06;40.66
72640;BME280;60683;51.730;8.762;2023-08-24T12:17:24;100108.28;;;30.34;40.06
72640;BME280;60683;51.730;8.762;2023-08-24T12:19:59;100109.16;;;30.19;40.89
72640;BME280;60683;51.730;8.762;2023-08-24T12:22:27;100112.19;;;30.52;39.34
72640;BME280;60683;51.730;8.762;2023-08-24T12:24:54;100105.13;;;30.78;39.27
72640;BME280;60683;51.730;8.762;2023-08-24T12:27:24;100109.59;;;30.40;40.44
72640;BME280;60683;51.730;8.762;2023-08-24T12:29:51;100094.84;;;30.36;40.65
72640;BME280;60683;51.730;8.762;2023-08-24T12:32:20;100093.91;;;30.28;40.94
72640;BME280;60683;51.730;8.762;2023-08-24T12:34:49;100095.13;;;30.31;42.18
72640;BME280;60683;51.730;8.762;2023-08-24T12:37:17;100099.41;;;30.06;41.90
72640;BME280;60683;51.730;8.762;2023-08-24T12:39:44;100096.78;;;30.13;42.57
72640;BME280;60683;51.730;8.762;2023-08-24T12:42:11;100099.13;;;30.11;43.18
72640;BME280;60683;51.730;8.762;2023-08-24T12:44:39;100081.91;;;30.02;42.77
72640;BME280;60683;51.730;8.762;2023-08-24T12:47:06;100075.44;;;30.17;43.46
72640;BME280;60683;51.730;8.762;2023-08-24T12:49:33;100068.19;;;30.09;43.45
72640;BME280;60683;51.730;8.762;2023-08-24T12:52:00;100062.41;;;29.98;44.06
72640;BME280;60683;51.730;8.762;2023-08-24T12:54:27;100075.88;;;29.61;44.47